createdAt,value
2022-09-12T00:01:06.018Z,9.48
2022-09-12T00:04:08.854Z,10.05
2022-09-12T00:07:12.999Z,8.30
2022-09-12T00:10:15.752Z,11.07
2022-09-12T00:13:18.418Z,10.98
2022-09-12T00:16:23.129Z,11.07
2022-09-12T00:19:26.160Z,10.57
2022-09-12T00:22:30.247Z,8.63
2022-09-12T00:25:32.924Z,10.40
2022-09-12T00:28:36.392Z,10.80
2022-09-12T00:31:39.328Z,10.15
2022-09-12T00:34:42.054Z,9.07
2022-09-12T00:37:46.697Z,11.20
2022-09-12T00:40:49.502Z,11.30
2022-09-12T00:43:53.121Z,10.57
2022-09-12T00:46:58.227Z,11.07
2022-09-12T00:50:03.389Z,11.18
2022-09-12T00:53:07.940Z,10.75
2022-09-12T00:56:11.285Z,11.40
2022-09-12T00:59:15.959Z,10.65
2022-09-12T01:02:18.651Z,10.00
2022-09-12T01:05:21.293Z,10.50
2022-09-12T01:08:25.304Z,10.50
2022-09-12T01:11:27.960Z,10.27
2022-09-12T01:14:30.844Z,10.65
2022-09-12T01:17:38.675Z,10.80
2022-09-12T01:20:49.384Z,12.30
2022-09-12T01:24:21.581Z,11.05
2022-09-12T01:27:34.992Z,11.52
2022-09-12T01:30:47.092Z,11.88
2022-09-12T01:33:57.287Z,10.88
2022-09-12T01:37:01.554Z,11.75
2022-09-12T01:40:05.669Z,10.35
2022-09-12T01:43:11.309Z,12.13
2022-09-12T01:46:17.323Z,10.90
2022-09-12T01:49:22.762Z,10.45
2022-09-12T01:52:27.098Z,10.20
2022-09-12T01:55:31.155Z,10.65
2022-09-12T01:58:36.527Z,10.77
2022-09-12T02:01:41.999Z,10.77
2022-09-12T02:04:47.823Z,10.00
2022-09-12T02:07:52.871Z,10.60
2022-09-12T02:10:57.436Z,9.63
2022-09-12T02:14:02.127Z,10.27
2022-09-12T02:17:08.756Z,9.35
2022-09-12T02:20:21.355Z,9.93
2022-09-12T02:23:39.379Z,11.13
2022-09-12T02:26:44.787Z,10.25
2022-09-12T02:29:47.366Z,9.48
2022-09-12T02:32:58.250Z,10.38
2022-09-12T02:36:04.922Z,10.73
2022-09-12T02:39:07.579Z,11.48
2022-09-12T02:42:10.267Z,11.60
2022-09-12T02:45:13.647Z,11.60
2022-09-12T02:48:19.572Z,11.82
2022-09-12T02:51:23.741Z,12.60
2022-09-12T02:54:26.621Z,10.75
2022-09-12T02:57:29.282Z,12.13
2022-09-12T03:00:32.612Z,12.02
2022-09-12T03:03:48.140Z,12.45
2022-09-12T03:06:52.789Z,11.88
2022-09-12T03:09:58.940Z,11.73
2022-09-12T03:13:06.682Z,11.98
2022-09-12T03:16:12.974Z,11.93
2022-09-12T03:19:20.284Z,12.23
2022-09-12T03:25:28.250Z,12.65
2022-09-12T03:28:30.929Z,12.45
2022-09-12T03:31:33.545Z,13.57
2022-09-12T03:34:37.646Z,13.50
2022-09-12T03:37:40.302Z,13.55
2022-09-12T03:40:43.368Z,12.77
2022-09-12T03:43:46.110Z,12.32
2022-09-12T03:46:49.501Z,12.93
2022-09-12T03:49:53.547Z,13.50
2022-09-12T03:52:56.231Z,12.15
2022-09-12T03:55:58.882Z,14.70
2022-09-12T03:59:01.542Z,13.90
2022-09-12T04:02:04.609Z,14.27
2022-09-12T04:05:09.341Z,14.55
2022-09-12T04:08:11.984Z,14.07
2022-09-12T04:11:15.991Z,12.90
2022-09-12T04:14:18.832Z,14.52
2022-09-12T04:17:21.474Z,14.10
2022-09-12T04:20:25.515Z,13.93
2022-09-12T04:23:28.222Z,15.20
2022-09-12T04:26:31.727Z,14.75
2022-09-12T04:29:35.625Z,14.48
2022-09-12T04:32:38.337Z,14.35
2022-09-12T04:35:42.980Z,15.45
2022-09-12T04:38:46.224Z,15.60
2022-09-12T04:41:48.959Z,14.75
2022-09-12T04:44:52.027Z,15.55
2022-09-12T04:47:54.684Z,13.15
2022-09-12T04:51:06.989Z,13.05
2022-09-12T04:54:11.817Z,13.38
2022-09-12T04:57:14.446Z,13.15
2022-09-12T05:00:17.505Z,12.75
2022-09-12T05:03:20.138Z,13.38
2022-09-12T05:06:25.421Z,13.05
2022-09-12T05:09:29.129Z,14.65
2022-09-12T05:12:32.071Z,13.35
2022-09-12T05:15:34.735Z,14.02
2022-09-12T05:18:37.485Z,12.18
2022-09-12T05:21:41.512Z,12.05
2022-09-12T05:24:49.849Z,12.32
2022-09-12T05:27:53.669Z,12.68
2022-09-12T05:31:01.647Z,12.10
2022-09-12T05:34:06.977Z,13.10
2022-09-12T05:37:10.975Z,13.05
2022-09-12T05:40:17.678Z,14.07
2022-09-12T05:43:21.279Z,14.35
2022-09-12T05:46:25.225Z,14.75
2022-09-12T05:49:27.938Z,14.00
2022-09-12T05:52:32.973Z,14.02
2022-09-12T05:55:36.089Z,11.82
2022-09-12T05:58:39.826Z,13.65
2022-09-12T06:01:42.773Z,13.82
2022-09-12T06:04:45.792Z,15.30
2022-09-12T06:07:49.876Z,14.32
2022-09-12T06:10:52.601Z,12.50
2022-09-12T06:13:56.273Z,14.77
2022-09-12T06:16:58.980Z,14.48
2022-09-12T06:20:01.875Z,14.85
2022-09-12T06:23:05.950Z,13.60
2022-09-12T06:26:09.350Z,14.43
2022-09-12T06:29:13.341Z,14.43
2022-09-12T06:32:16.531Z,13.43
2022-09-12T06:35:19.229Z,13.93
2022-09-12T06:38:23.336Z,14.77
2022-09-12T06:41:26.848Z,15.13
2022-09-12T06:44:29.729Z,17.27
2022-09-12T06:47:32.956Z,16.38
2022-09-12T06:50:35.562Z,17.50
2022-09-12T06:53:39.693Z,16.05
2022-09-12T06:56:42.405Z,18.08
2022-09-12T06:59:45.009Z,17.35
2022-09-12T07:02:47.661Z,18.80
2022-09-12T07:05:50.291Z,18.85
2022-09-12T07:08:54.359Z,18.90
2022-09-12T07:11:56.961Z,18.80
2022-09-12T07:14:59.606Z,19.75
2022-09-12T07:18:02.304Z,18.98
2022-09-12T07:21:05.440Z,19.50
2022-09-12T07:24:10.243Z,18.00
2022-09-12T07:27:13.144Z,19.77
2022-09-12T07:30:16.236Z,17.88
2022-09-12T07:33:21.021Z,17.80
2022-09-12T07:36:25.340Z,17.10
2022-09-12T07:39:29.499Z,17.05
2022-09-12T07:42:32.243Z,17.92
2022-09-12T07:45:34.924Z,17.67
2022-09-12T07:48:37.933Z,17.23
2022-09-12T07:51:41.128Z,18.02
2022-09-12T07:54:45.326Z,16.70
2022-09-12T07:57:50.225Z,16.73
2022-09-12T08:00:52.999Z,16.20
2022-09-12T08:03:57.176Z,15.88
2022-09-12T08:06:59.775Z,16.40
2022-09-12T08:10:03.749Z,14.23
2022-09-12T08:13:08.759Z,14.93
2022-09-12T08:16:13.567Z,14.63
2022-09-12T08:19:16.182Z,11.93
2022-09-12T08:22:22.018Z,11.38
2022-09-12T08:25:26.712Z,10.73
2022-09-12T08:28:29.337Z,11.48
2022-09-12T08:31:36.318Z,11.32
2022-09-12T08:37:41.344Z,10.18
2022-09-12T08:40:49.534Z,10.23
2022-09-12T08:44:05.108Z,10.02
2022-09-12T08:47:26.886Z,7.50
2022-09-12T08:50:29.490Z,5.82
2022-09-12T08:53:32.103Z,8.95
2022-09-12T08:56:37.699Z,6.15
2022-09-12T08:59:42.304Z,6.70
2022-09-12T09:03:18.749Z,6.95
2022-09-12T09:06:27.624Z,6.47
2022-09-12T09:09:37.186Z,6.93
2022-09-12T09:12:45.700Z,6.20
2022-09-12T09:15:49.998Z,6.78
2022-09-12T09:18:52.679Z,7.03
2022-09-12T09:21:57.429Z,5.60
2022-09-12T09:25:02.324Z,5.85
2022-09-12T09:28:08.119Z,4.22
2022-09-12T09:31:15.052Z,3.38
2022-09-12T09:37:25.354Z,3.67
2022-09-12T09:40:30.130Z,3.45
2022-09-12T09:43:34.115Z,3.42
2022-09-12T09:46:38.879Z,2.92
2022-09-12T09:49:41.503Z,2.75
2022-09-12T09:52:44.192Z,3.10
2022-09-12T09:55:46.754Z,3.05
2022-09-12T09:58:50.690Z,2.88
2022-09-12T10:01:54.744Z,3.10
2022-09-12T10:04:58.306Z,2.30
2022-09-12T10:08:00.861Z,1.48
2022-09-12T10:11:04.306Z,3.00
2022-09-12T10:14:24.559Z,2.80
2022-09-12T10:17:33.889Z,3.08
2022-09-12T10:20:39.983Z,3.17
2022-09-12T10:23:42.597Z,2.75
2022-09-12T10:26:45.322Z,2.65
2022-09-12T10:29:50.427Z,2.83
2022-09-12T10:32:54.085Z,3.63
2022-09-12T10:35:56.963Z,2.88
2022-09-12T10:39:00.612Z,2.90
2022-09-12T10:42:03.428Z,3.83
2022-09-12T10:45:21.115Z,4.25
2022-09-12T10:48:26.431Z,3.15
2022-09-12T10:51:29.416Z,3.47
2022-09-12T10:54:31.968Z,3.47
2022-09-12T10:57:47.797Z,4.75
2022-09-12T11:00:53.845Z,4.18
2022-09-12T11:04:06.483Z,3.63
2022-09-12T11:07:19.589Z,3.40
2022-09-12T11:10:27.866Z,2.88
2022-09-12T11:13:40.075Z,2.65
2022-09-12T11:16:45.768Z,2.95
2022-09-12T11:20:23.436Z,2.67
2022-09-12T11:24:02.523Z,1.90
2022-09-12T11:27:14.104Z,2.65
2022-09-12T11:30:17.791Z,1.70
2022-09-12T11:33:27.912Z,1.63
2022-09-12T11:36:34.203Z,2.08
2022-09-12T11:39:38.823Z,1.83
2022-09-12T11:42:41.442Z,1.88
2022-09-12T11:45:45.190Z,1.75
2022-09-12T11:48:52.898Z,1.92
2022-09-12T11:51:57.572Z,1.73
2022-09-12T11:55:03.812Z,1.75
2022-09-12T11:58:08.572Z,2.47
2022-09-12T12:01:13.853Z,1.30
2022-09-12T12:04:19.554Z,2.00
2022-09-12T12:07:22.284Z,1.63
2022-09-12T12:10:27.503Z,1.73
2022-09-12T12:13:32.366Z,2.08
2022-09-12T12:16:35.785Z,2.05
2022-09-12T12:19:39.946Z,1.58
2022-09-12T12:22:48.500Z,1.65
2022-09-12T12:25:54.497Z,1.70
2022-09-12T12:29:01.237Z,1.60
2022-09-12T12:32:27.582Z,2.00
2022-09-12T12:35:41.617Z,2.25
2022-09-12T12:38:44.443Z,2.60
2022-09-12T12:41:47.357Z,1.60
2022-09-12T12:44:51.455Z,1.70
2022-09-12T12:47:54.694Z,1.60
2022-09-12T12:51:24.603Z,1.50
2022-09-12T12:54:55.754Z,1.77
2022-09-12T12:57:58.560Z,1.65
2022-09-12T13:01:11.081Z,1.25
2022-09-12T13:04:15.098Z,1.73
2022-09-12T13:07:26.152Z,1.80
2022-09-12T13:10:29.820Z,1.35
2022-09-12T13:13:33.848Z,1.55
2022-09-12T13:16:37.600Z,1.45
2022-09-12T13:19:40.382Z,1.40
2022-09-12T13:22:45.301Z,1.80
2022-09-12T13:25:47.998Z,1.70
2022-09-12T13:28:51.504Z,1.33
2022-09-12T13:31:55.214Z,1.92
2022-09-12T13:35:04.549Z,1.83
2022-09-12T13:38:09.880Z,2.45
2022-09-12T13:41:23.221Z,1.92
2022-09-12T13:44:26.436Z,1.73
2022-09-12T13:47:31.817Z,2.10
2022-09-12T13:50:38.748Z,1.33
2022-09-12T13:53:44.471Z,1.70
2022-09-12T13:56:51.011Z,1.73
2022-09-12T13:59:56.361Z,2.15
2022-09-12T14:03:12.991Z,2.10
2022-09-12T14:06:16.581Z,2.05
2022-09-12T14:09:25.252Z,2.78
2022-09-12T14:12:30.229Z,2.53
2022-09-12T14:15:33.895Z,2.20
2022-09-12T14:18:38.953Z,2.08
2022-09-12T14:21:41.615Z,2.45
2022-09-12T14:24:51.720Z,2.10
2022-09-12T14:27:55.247Z,2.55
2022-09-12T14:30:59.466Z,2.10
2022-09-12T14:34:12.898Z,2.38
2022-09-12T14:37:15.542Z,2.58
2022-09-12T14:40:21.263Z,2.47
2022-09-12T14:43:26.242Z,3.22
2022-09-12T14:46:31.587Z,3.67
2022-09-12T14:49:35.452Z,2.88
2022-09-12T14:52:39.052Z,2.88
2022-09-12T14:55:46.060Z,1.55
2022-09-12T14:58:48.894Z,2.15
2022-09-12T15:01:51.517Z,3.10
2022-09-12T15:04:55.214Z,2.58
2022-09-12T15:08:01.376Z,2.55
2022-09-12T15:11:07.295Z,2.67
2022-09-12T15:14:12.715Z,3.17
2022-09-12T15:17:15.317Z,3.30
2022-09-12T15:20:18.029Z,3.40
2022-09-12T15:23:26.920Z,3.83
2022-09-12T15:26:31.627Z,3.10
2022-09-12T15:29:34.353Z,2.90
2022-09-12T15:32:36.932Z,2.83
2022-09-12T15:35:39.602Z,2.45
2022-09-12T15:38:42.188Z,2.17
2022-09-12T15:41:47.300Z,2.63
2022-09-12T15:44:49.936Z,2.50
2022-09-12T15:47:52.588Z,2.50
2022-09-12T15:50:57.584Z,2.40
2022-09-12T15:54:00.230Z,2.35
2022-09-12T15:57:04.165Z,2.63
2022-09-12T16:00:08.192Z,2.38
2022-09-12T16:03:17.942Z,2.92
2022-09-12T16:06:20.543Z,2.60
2022-09-12T16:09:24.607Z,2.75
2022-09-12T16:12:28.620Z,3.03
2022-09-12T16:15:31.293Z,3.58
2022-09-12T16:18:33.913Z,2.97
2022-09-12T16:21:36.591Z,2.40
2022-09-12T16:24:39.303Z,2.35
2022-09-12T16:27:43.367Z,2.22
2022-09-12T16:30:46.345Z,2.20
2022-09-12T16:33:49.017Z,2.10
2022-09-12T16:36:51.680Z,2.42
2022-09-12T16:39:54.345Z,2.80
2022-09-12T16:42:58.368Z,3.20
2022-09-12T16:46:04.478Z,2.92
2022-09-12T16:49:07.234Z,3.22
2022-09-12T16:52:12.437Z,2.90
2022-09-12T16:55:15.451Z,2.78
2022-09-12T16:58:19.605Z,2.70
2022-09-12T17:01:23.408Z,2.50
2022-09-12T17:04:26.280Z,2.67
2022-09-12T17:07:29.096Z,2.80
2022-09-12T17:10:32.712Z,2.47
2022-09-12T17:14:02.582Z,2.55
2022-09-12T17:16:59.617Z,2.30
2022-09-12T17:20:02.635Z,2.90
2022-09-12T17:23:09.694Z,2.35
2022-09-12T17:26:12.921Z,2.75
2022-09-12T17:29:17.169Z,2.15
2022-09-12T17:32:19.956Z,2.72
2022-09-12T17:35:23.130Z,2.78
2022-09-12T17:38:26.054Z,2.35
2022-09-12T17:41:29.538Z,2.13
2022-09-12T17:44:35.912Z,2.30
2022-09-12T17:47:38.653Z,2.72
2022-09-12T17:50:41.542Z,2.75
2022-09-12T17:53:44.388Z,2.38
2022-09-12T17:56:49.008Z,2.70
2022-09-12T17:59:53.297Z,4.65
2022-09-12T18:02:55.140Z,2.35
2022-09-12T18:05:58.060Z,2.75
2022-09-12T18:09:01.269Z,2.45
2022-09-12T18:12:04.148Z,2.45
2022-09-12T18:15:09.932Z,2.22
2022-09-12T18:18:12.862Z,2.07
2022-09-12T18:21:15.652Z,2.65
2022-09-12T18:24:18.959Z,2.22
2022-09-12T18:27:21.731Z,2.78
2022-09-12T18:30:25.969Z,2.60
2022-09-12T18:33:28.750Z,2.67
2022-09-12T18:36:31.551Z,2.20
2022-09-12T18:39:34.164Z,2.58
2022-09-12T18:42:36.741Z,2.67
2022-09-12T18:45:40.805Z,2.40
2022-09-12T18:48:44.181Z,2.25
2022-09-12T18:51:46.784Z,2.85
2022-09-12T18:54:49.514Z,2.95
2022-09-12T18:57:52.158Z,2.45
2022-09-12T19:00:56.183Z,2.78
2022-09-12T19:03:58.968Z,2.50
2022-09-12T19:07:02.180Z,2.60
2022-09-12T19:10:05.092Z,2.50
2022-09-12T19:13:07.684Z,2.42
2022-09-12T19:16:13.259Z,2.65
2022-09-12T19:19:16.061Z,2.53
2022-09-12T19:22:18.924Z,3.58
2022-09-12T19:25:21.681Z,3.58
2022-09-12T19:28:24.347Z,3.40
2022-09-12T19:31:28.300Z,3.35
2022-09-12T19:34:30.887Z,3.78
2022-09-12T19:37:33.459Z,3.45
2022-09-12T19:40:37.838Z,3.35
2022-09-12T19:43:42.598Z,3.70
2022-09-12T19:46:46.616Z,4.30
2022-09-12T19:49:49.287Z,4.40
2022-09-12T19:52:51.810Z,3.33
2022-09-12T19:55:54.384Z,3.30
2022-09-12T19:58:57.091Z,3.15
2022-09-12T20:02:01.120Z,3.53
2022-09-12T20:05:03.925Z,3.28
2022-09-12T20:08:07.161Z,2.60
2022-09-12T20:11:09.843Z,3.25
2022-09-12T20:14:12.446Z,3.53
2022-09-12T20:17:16.457Z,3.30
2022-09-12T20:20:19.021Z,3.30
2022-09-12T20:23:21.662Z,3.10
2022-09-12T20:26:24.924Z,3.28
2022-09-12T20:29:27.580Z,3.25
2022-09-12T20:32:31.541Z,4.03
2022-09-12T20:35:34.115Z,3.22
2022-09-12T20:38:36.976Z,3.00
2022-09-12T20:41:39.570Z,3.17
2022-09-12T20:44:42.103Z,2.47
2022-09-12T20:47:45.988Z,2.92
2022-09-12T20:50:48.580Z,2.92
2022-09-12T20:53:53.832Z,3.50
2022-09-12T20:56:56.393Z,2.80
2022-09-12T20:59:58.991Z,3.15
2022-09-12T21:03:02.896Z,2.67
2022-09-12T21:06:06.326Z,2.80
2022-09-12T21:09:08.971Z,2.72
2022-09-12T21:12:11.551Z,2.67
2022-09-12T21:15:14.083Z,3.00
2022-09-12T21:18:18.040Z,2.58
2022-09-12T21:21:20.874Z,3.33
2022-09-12T21:24:23.538Z,2.67
2022-09-12T21:27:26.121Z,3.03
2022-09-12T21:30:29.732Z,2.95
2022-09-12T21:33:33.642Z,3.45
2022-09-12T21:36:36.203Z,3.30
2022-09-12T21:39:38.834Z,2.78
2022-09-12T21:42:41.439Z,3.28
2022-09-12T21:45:43.973Z,3.00
2022-09-12T21:48:47.914Z,3.47
2022-09-12T21:51:51.332Z,3.33
2022-09-12T21:54:53.879Z,3.08
2022-09-12T21:57:56.471Z,2.92
2022-09-12T22:01:00.284Z,3.20
2022-09-12T22:04:04.567Z,3.38
2022-09-12T22:07:07.377Z,3.60
2022-09-12T22:10:10.571Z,3.85
2022-09-12T22:13:13.087Z,4.05
2022-09-12T22:16:15.721Z,3.42
2022-09-12T22:19:19.778Z,3.75
2022-09-12T22:22:39.977Z,3.65
2022-09-12T22:25:42.527Z,3.60
2022-09-12T22:28:45.169Z,3.80
2022-09-12T22:31:47.756Z,3.90
2022-09-12T22:34:51.704Z,4.32
2022-09-12T22:37:54.302Z,4.43
2022-09-12T22:40:58.494Z,4.78
2022-09-12T22:44:01.049Z,3.92
2022-09-12T22:47:03.700Z,3.50
2022-09-12T22:50:08.841Z,3.25
2022-09-12T22:53:11.485Z,3.78
2022-09-12T22:56:14.034Z,4.60
2022-09-12T22:59:16.755Z,4.60
2022-09-12T23:02:19.301Z,4.28
2022-09-12T23:05:23.312Z,3.78
2022-09-12T23:08:29.361Z,4.00
2022-09-12T23:11:31.933Z,3.90
2022-09-12T23:14:34.559Z,3.22
2022-09-12T23:17:37.083Z,3.55
2022-09-12T23:20:41.093Z,3.97
2022-09-12T23:23:43.703Z,3.70
2022-09-12T23:26:46.273Z,4.43
2022-09-12T23:29:52.370Z,4.40
2022-09-12T23:32:55.080Z,3.90
2022-09-12T23:36:02.126Z,4.07
2022-09-12T23:39:04.980Z,3.38
2022-09-12T23:42:07.670Z,4.18
2022-09-12T23:45:11.095Z,3.83
2022-09-12T23:48:13.669Z,4.03
2022-09-12T23:51:18.735Z,3.83
2022-09-12T23:54:21.315Z,3.88
2022-09-12T23:57:23.872Z,3.88
